Time;durP1;ratioP1;P1;durP2;ratioP2;P2;SDS_P1;SDS_P2;PMS_P1;PMS_P2;Temp;Humidity;BMP_temperature;BMP_pressure;BME280_temperature;BME280_humidity;BME280_pressure;Samples;Min_cycle;Max_cycle;Signal;HPM_P1;HPM_P2
2021/10/31 00:00:07;;;;;;;27.40;18.52;;;;;;;10.14;99.22;100015.47;4820745;29;20507;-77
2021/10/31 00:02:33;;;;;;;25.30;18.98;;;;;;;10.04;99.48;100001.69;4818825;29;20082;-78
2021/10/31 00:04:58;;;;;;;25.27;18.77;;;;;;;10.12;99.47;100017.53;4821754;29;20115;-78
2021/10/31 00:07:23;;;;;;;24.15;18.90;;;;;;;10.04;99.42;100005.19;4823705;29;20117;-77
2021/10/31 00:09:49;;;;;;;27.70;19.85;;;;;;;9.99;99.32;99988.06;4820926;29;20031;-78
2021/10/31 00:12:14;;;;;;;25.40;19.38;;;;;;;10.00;99.68;99990.53;4824380;29;20034;-77
2021/10/31 00:14:41;;;;;;;27.17;19.48;;;;;;;10.07;99.50;100012.00;4809654;29;20173;-77
2021/10/31 00:17:06;;;;;;;27.25;19.90;;;;;;;10.03;99.96;100008.94;4806473;29;20171;-78
2021/10/31 00:19:32;;;;;;;27.52;20.25;;;;;;;9.98;99.63;99983.72;4804192;29;20057;-78
2021/10/31 00:21:59;;;;;;;25.67;20.20;;;;;;;10.01;99.76;99999.41;4805065;29;20088;-77
2021/10/31 00:24:25;;;;;;;25.63;19.80;;;;;;;10.00;99.73;99993.22;4804481;29;20027;-78
2021/10/31 00:26:50;;;;;;;25.10;20.20;;;;;;;9.92;99.81;99968.47;4805527;29;20030;-77
2021/10/31 00:29:16;;;;;;;26.02;20.33;;;;;;;10.01;99.53;99985.97;4804401;29;20038;-78
2021/10/31 00:31:42;;;;;;;28.80;21.70;;;;;;;9.99;99.96;99977.31;4806396;29;20049;-78
2021/10/31 00:34:07;;;;;;;26.88;20.35;;;;;;;10.00;99.53;99977.09;4804965;29;20223;-78
2021/10/31 00:36:33;;;;;;;25.42;20.67;;;;;;;9.99;99.66;99975.44;4806584;29;20059;-78
2021/10/31 00:38:58;;;;;;;29.35;21.63;;;;;;;9.92;100.00;99971.97;4819026;29;20039;-78
2021/10/31 00:41:24;;;;;;;27.77;21.13;;;;;;;10.02;100.00;99987.63;4806060;29;20417;-78
2021/10/31 00:43:49;;;;;;;27.63;21.45;;;;;;;10.02;100.00;99985.75;4804219;29;20461;-78
2021/10/31 00:46:15;;;;;;;25.38;20.30;;;;;;;10.02;99.74;99984.94;4806405;29;20069;-78
2021/10/31 00:48:40;;;;;;;28.27;21.30;;;;;;;9.94;99.77;99977.97;4805073;29;20048;-77
2021/10/31 00:51:06;;;;;;;27.70;22.00;;;;;;;10.03;99.47;99991.94;4807920;29;20062;-77
2021/10/31 00:53:32;;;;;;;26.40;21.33;;;;;;;10.01;100.00;99981.44;4822250;29;20049;-78
2021/10/31 00:55:59;;;;;;;26.27;22.05;;;;;;;10.02;100.00;99990.31;4810878;29;20065;-77
2021/10/31 00:58:25;;;;;;;27.42;21.30;;;;;;;10.01;100.00;99978.75;4809411;29;20038;-77
2021/10/31 01:00:52;;;;;;;28.27;21.60;;;;;;;9.97;100.00;99966.78;4810040;29;20069;-78
2021/10/31 01:03:17;;;;;;;27.55;22.10;;;;;;;10.05;100.00;99982.63;4810393;29;20843;-77
2021/10/31 01:05:50;;;;;;;28.65;22.00;;;;;;;10.05;99.66;99971.88;4828815;29;20034;-78
2021/10/31 01:08:57;;;;;;;27.33;22.67;;;;;;;10.05;100.00;99979.94;4830862;29;20704;-78
2021/10/31 01:11:51;;;;;;;30.10;23.08;;;;;;;10.04;100.00;99975.63;4810363;29;20030;-78
2021/10/31 01:14:46;;;;;;;30.02;23.52;;;;;;;10.03;100.00;99986.56;4808955;29;20095;-77
2021/10/31 01:17:20;;;;;;;37.15;24.83;;;;;;;10.01;100.00;99978.75;4825827;29;20061;-77
2021/10/31 01:20:14;;;;;;;33.25;25.10;;;;;;;9.97;100.00;99982.09;4832176;29;20026;-78
2021/10/31 01:23:01;;;;;;;33.08;25.10;;;;;;;9.94;100.00;99971.75;4829957;29;20062;-78
2021/10/31 01:25:52;;;;;;;30.52;25.70;;;;;;;9.90;100.00;99971.38;4809644;29;20043;-78
2021/10/31 01:28:32;;;;;;;34.47;25.98;;;;;;;9.89;100.00;99970.53;4822110;29;20110;-77
2021/10/31 01:31:12;;;;;;;30.85;26.08;;;;;;;9.87;100.00;99967.25;4816169;29;20496;-78
2021/10/31 01:33:46;;;;;;;32.70;26.27;;;;;;;9.86;100.00;99970.13;4826666;29;20109;-78
2021/10/31 01:36:34;;;;;;;33.58;26.67;;;;;;;9.87;100.00;99966.44;4815836;29;20027;-78
2021/10/31 01:39:58;;;;;;;34.75;26.25;;;;;;;9.86;100.00;99970.94;4798342;29;20497;-78
2021/10/31 01:42:39;;;;;;;30.50;24.83;;;;;;;9.88;100.00;99962.69;4798669;29;20494;-78
2021/10/31 01:45:11;;;;;;;43.50;26.70;;;;;;;9.90;100.00;99968.69;4806113;29;20101;-77
2021/10/31 01:47:45;;;;;;;35.63;27.25;;;;;;;9.91;100.00;99970.31;4827343;29;20340;-78
2021/10/31 01:50:10;;;;;;;41.63;30.08;;;;;;;9.94;100.00;99971.75;4824888;29;20035;-78
2021/10/31 01:52:40;;;;;;;36.50;29.05;;;;;;;9.94;100.00;99969.91;4824138;29;20057;-77
2021/10/31 01:55:13;;;;;;;41.17;31.20;;;;;;;9.93;100.00;99970.91;4826440;29;20029;-77
2021/10/31 01:57:44;;;;;;;45.83;33.17;;;;;;;9.94;100.00;99974.44;4826941;29;20560;-77
2021/10/31 02:00:13;;;;;;;48.38;35.78;;;;;;;9.95;100.00;99978.78;4820821;29;20050;-77
2021/10/31 02:02:42;;;;;;;50.80;36.00;;;;;;;9.97;100.00;99966.78;4807916;29;20477;-78
2021/10/31 02:05:14;;;;;;;48.58;37.63;;;;;;;9.98;100.00;99975.66;4807491;29;20042;-77
2021/10/31 02:07:45;;;;;;;48.20;37.90;;;;;;;10.01;100.00;99976.06;4807200;29;20026;-77
2021/10/31 02:10:13;;;;;;;51.53;39.90;;;;;;;10.03;100.00;99976.66;4807046;29;20031;-78
2021/10/31 02:12:41;;;;;;;56.65;41.17;;;;;;;10.08;100.00;99982.22;4807112;29;20039;-79
2021/10/31 02:15:12;;;;;;;58.45;42.95;;;;;;;10.11;100.00;99978.28;4808477;29;20110;-78
2021/10/31 02:17:39;;;;;;;64.10;43.75;;;;;;;10.13;100.00;99984.22;4806284;29;20427;-78
2021/10/31 02:20:05;;;;;;;68.72;46.83;;;;;;;10.15;100.00;99981.34;4807461;29;20041;-78
2021/10/31 02:22:31;;;;;;;70.03;45.80;;;;;;;10.17;100.00;99987.34;4808711;29;20046;-78
2021/10/31 02:25:00;;;;;;;66.35;47.85;;;;;;;10.07;100.00;99964.44;4807066;29;20038;-78
2021/10/31 02:27:31;;;;;;;70.05;46.92;;;;;;;10.18;100.00;99987.13;4808610;29;20030;-78
2021/10/31 02:29:58;;;;;;;79.40;47.70;;;;;;;10.21;100.00;99993.94;4817204;29;20113;-78
2021/10/31 02:32:27;;;;;;;74.63;48.72;;;;;;;10.19;100.00;99988.75;4826838;29;20105;-78
2021/10/31 02:34:55;;;;;;;77.03;49.85;;;;;;;10.17;100.00;99977.41;4825060;29;20045;-79
2021/10/31 02:37:25;;;;;;;81.35;51.40;;;;;;;10.23;100.00;99991.81;4827058;29;20034;-79
2021/10/31 02:39:50;;;;;;;80.45;51.13;;;;;;;10.29;100.00;99999.06;4810276;29;20046;-78
2021/10/31 02:42:16;;;;;;;78.90;50.00;;;;;;;10.33;100.00;100003.81;4814767;29;20038;-80
2021/10/31 02:44:42;;;;;;;85.35;50.83;;;;;;;10.37;100.00;100006.06;4809163;29;20042;-78
2021/10/31 02:47:13;;;;;;;88.75;49.75;;;;;;;10.29;100.00;99986.44;4806599;29;20412;-78
2021/10/31 02:49:39;;;;;;;83.80;49.47;;;;;;;10.42;100.00;100007.03;4812397;29;20102;-78
2021/10/31 02:52:19;;;;;;;81.95;46.33;;;;;;;10.46;100.00;99996.66;4825474;29;20361;-78
2021/10/31 02:54:47;;;;;;;76.38;43.13;;;;;;;10.49;100.00;100004.31;4816391;29;20019;-78
2021/10/31 02:57:19;;;;;;;69.90;39.65;;;;;;;10.43;100.00;99986.34;4813477;29;20023;-79
2021/10/31 02:59:50;;;;;;;71.15;39.95;;;;;;;10.50;100.00;100000.59;4825505;29;20038;-79
2021/10/31 03:02:16;;;;;;;68.53;37.63;;;;;;;10.49;100.00;99997.06;4820691;29;20141;-79
2021/10/31 03:04:43;;;;;;;67.35;36.22;;;;;;;10.52;100.00;100007.38;4824478;29;20041;-79
2021/10/31 03:07:09;;;;;;;65.80;36.28;;;;;;;10.53;100.00;99992.09;4825270;29;20086;-79
2021/10/31 03:09:35;;;;;;;69.93;36.35;;;;;;;10.53;100.00;99979.47;4816416;29;20062;-79
2021/10/31 03:12:03;;;;;;;64.60;36.22;;;;;;;10.46;100.00;99983.22;4821502;29;20062;-78
2021/10/31 03:14:29;;;;;;;61.33;34.88;;;;;;;10.53;100.00;99975.94;4806568;29;20039;-79
2021/10/31 03:16:55;;;;;;;70.25;34.78;;;;;;;10.53;100.00;99940.97;4806575;29;20373;-78
2021/10/31 03:19:20;;;;;;;57.00;33.80;;;;;;;10.52;100.00;99898.97;4805620;29;20042;-78
2021/10/31 03:21:46;;;;;;;61.45;32.85;;;;;;;10.50;100.00;99917.22;4804827;29;20035;-79
2021/10/31 03:24:11;;;;;;;61.72;31.92;;;;;;;10.49;100.00;99932.50;4805028;29;20504;-79
2021/10/31 03:26:37;;;;;;;61.95;33.70;;;;;;;10.49;100.00;99959.41;4806552;29;20027;-78
2021/10/31 03:29:02;;;;;;;61.00;34.08;;;;;;;10.48;100.00;99967.69;4805169;29;20082;-78
2021/10/31 03:31:27;;;;;;;60.45;31.63;;;;;;;10.46;100.00;99959.88;4806311;29;20358;-78
2021/10/31 03:33:53;;;;;;;63.45;32.05;;;;;;;10.44;100.00;99980.75;4805047;29;20480;-78
2021/10/31 03:36:19;;;;;;;51.58;30.33;;;;;;;10.38;100.00;99973.56;4842827;29;20038;-78
2021/10/31 03:38:44;;;;;;;64.15;31.88;;;;;;;10.43;100.00;99991.72;4825729;29;20424;-78
2021/10/31 03:41:09;;;;;;;60.50;31.33;;;;;;;10.41;100.00;99991.13;4822739;29;20045;-79
2021/10/31 03:43:35;;;;;;;58.65;30.85;;;;;;;10.39;100.00;99999.41;4825352;29;20121;-79
2021/10/31 03:46:01;;;;;;;57.00;29.85;;;;;;;10.39;100.00;100004.78;4806676;29;20046;-79
2021/10/31 03:48:26;;;;;;;57.03;30.20;;;;;;;10.41;100.00;100010.78;4821396;29;20030;-79
2021/10/31 03:50:51;;;;;;;61.53;30.60;;;;;;;10.42;100.00;100012.41;4807261;29;20050;-79
2021/10/31 03:53:17;;;;;;;60.28;29.73;;;;;;;10.44;100.00;100020.28;4819388;29;20066;-79
2021/10/31 03:55:42;;;;;;;58.47;29.17;;;;;;;10.46;100.00;100028.94;4824931;29;20030;-79
2021/10/31 03:58:08;;;;;;;57.22;29.20;;;;;;;10.46;100.00;100028.94;4818905;29;20433;-79
2021/10/31 04:00:34;;;;;;;52.55;27.75;;;;;;;10.46;100.00;100039.69;4807116;29;20034;-78
2021/10/31 04:02:59;;;;;;;53.88;27.65;;;;;;;10.44;100.00;100042.63;4814338;29;20050;-79
2021/10/31 04:05:25;;;;;;;51.63;26.88;;;;;;;10.46;100.00;100048.63;4827671;29;20058;-79
2021/10/31 04:07:50;;;;;;;53.53;27.67;;;;;;;10.49;100.00;100055.41;4822901;29;20106;-79
2021/10/31 04:10:16;;;;;;;52.00;26.08;;;;;;;10.57;100.00;100057.84;4806557;29;20027;-79
2021/10/31 04:12:41;;;;;;;51.10;25.40;;;;;;;10.62;100.00;100059.88;4806031;29;20050;-79
2021/10/31 04:15:07;;;;;;;48.00;26.35;;;;;;;10.63;100.00;100057.00;4817647;29;20151;-79
2021/10/31 04:17:34;;;;;;;50.42;25.70;;;;;;;10.64;100.00;100061.31;4806340;29;20110;-79
2021/10/31 04:20:00;;;;;;;48.17;24.00;;;;;;;10.62;100.00;100047.25;4809362;29;20041;-78
2021/10/31 04:22:27;;;;;;;49.78;26.02;;;;;;;10.62;100.00;100062.56;4812736;29;20031;-79
2021/10/31 04:24:52;;;;;;;44.60;25.17;;;;;;;10.65;100.00;100070.22;4824814;29;20129;-79
2021/10/31 04:27:18;;;;;;;46.88;24.10;;;;;;;10.62;100.00;100063.38;4819711;29;20179;-78
2021/10/31 04:29:43;;;;;;;50.58;22.88;;;;;;;10.56;100.00;100058.88;4824228;29;20335;-79
2021/10/31 04:32:08;;;;;;;44.42;23.23;;;;;;;10.59;100.00;100066.50;4824210;29;20035;-79
2021/10/31 04:34:34;;;;;;;42.38;21.27;;;;;;;10.57;100.00;100068.63;4794073;29;20058;-78
2021/10/31 04:37:01;;;;;;;36.50;19.83;;;;;;;10.61;100.00;100077.91;4809180;29;20035;-79
2021/10/31 04:39:26;;;;;;;42.08;20.27;;;;;;;10.58;100.00;100075.63;4812515;29;20053;-78
2021/10/31 04:41:53;;;;;;;46.90;22.70;;;;;;;10.51;100.00;100075.69;4809143;29;20378;-79
2021/10/31 04:44:18;;;;;;;48.92;21.02;;;;;;;10.46;100.00;100080.91;4809540;29;20103;-78
2021/10/31 04:46:43;;;;;;;42.80;21.05;;;;;;;10.50;100.00;100083.97;4809560;29;20491;-79
2021/10/31 04:49:09;;;;;;;45.75;21.52;;;;;;;10.44;100.00;100084.84;4810314;29;20039;-79
2021/10/31 04:51:35;;;;;;;46.47;21.25;;;;;;;10.43;100.00;100099.31;4808891;29;20031;-79
2021/10/31 04:54:00;;;;;;;40.85;20.23;;;;;;;10.40;100.00;100105.13;4809893;29;20346;-79
2021/10/31 04:56:26;;;;;;;37.72;18.77;;;;;;;10.37;100.00;100103.69;4823873;29;20030;-79
2021/10/31 04:58:53;;;;;;;39.78;20.52;;;;;;;10.34;100.00;100099.56;4809227;29;20035;-79
2021/10/31 05:01:20;;;;;;;39.28;20.17;;;;;;;10.31;100.00;100093.78;4810180;29;20077;-79
2021/10/31 05:03:46;;;;;;;42.22;19.60;;;;;;;10.27;100.00;100096.09;4823275;29;20050;-78
2021/10/31 05:06:12;;;;;;;45.85;20.70;;;;;;;10.23;100.00;100099.38;4824887;29;20042;-79
2021/10/31 05:08:37;;;;;;;41.15;19.77;;;;;;;10.19;100.00;100098.97;4815736;29;20030;-79
2021/10/31 05:11:03;;;;;;;39.88;20.08;;;;;;;10.15;100.00;100100.44;4828053;29;20044;-79
2021/10/31 05:13:29;;;;;;;45.88;20.65;;;;;;;10.10;100.00;100101.09;4820541;29;20550;-79
2021/10/31 05:15:54;;;;;;;44.13;20.40;;;;;;;10.08;100.00;100107.72;4808837;29;20501;-78
2021/10/31 05:18:20;;;;;;;38.92;20.35;;;;;;;10.02;100.00;100116.63;4806927;29;20061;-78
2021/10/31 05:20:45;;;;;;;45.75;19.35;;;;;;;9.89;100.00;100107.56;4824370;29;20043;-78
2021/10/31 05:23:11;;;;;;;38.53;18.08;;;;;;;9.93;100.00;100116.03;4822946;29;20517;-79
2021/10/31 05:25:36;;;;;;;43.50;18.95;;;;;;;9.90;100.00;100121.84;4838544;29;20041;-80
2021/10/31 05:28:02;;;;;;;40.92;18.63;;;;;;;9.79;100.00;100104.50;4812098;29;20099;-78
2021/10/31 05:30:27;;;;;;;38.63;17.60;;;;;;;9.82;100.00;100116.69;4809466;29;20031;-79
2021/10/31 05:32:53;;;;;;;43.00;19.25;;;;;;;9.72;100.00;100110.94;4806025;29;20461;-79
2021/10/31 05:35:18;;;;;;;40.20;17.73;;;;;;;9.74;100.00;100123.13;4808001;29;20248;-79
2021/10/31 05:37:48;;;;;;;39.38;18.70;;;;;;;9.72;100.00;100127.06;4807038;29;20034;-79
2021/10/31 05:40:16;;;;;;;42.00;16.98;;;;;;;9.66;100.00;100131.41;4808943;29;20091;-79
2021/10/31 05:42:42;;;;;;;51.00;17.67;;;;;;;9.66;100.00;100136.78;4807747;29;20035;-79
2021/10/31 05:45:09;;;;;;;42.15;17.80;;;;;;;9.65;100.00;100132.44;4810351;29;20077;-79
2021/10/31 05:47:36;;;;;;;41.55;18.10;;;;;;;9.62;100.00;100139.06;4808759;29;20030;-79
2021/10/31 05:50:04;;;;;;;48.35;17.55;;;;;;;9.55;100.00;100129.38;4810373;29;20039;-79
2021/10/31 05:52:29;;;;;;;44.00;17.80;;;;;;;9.66;100.00;100142.16;4808220;29;20027;-79
2021/10/31 05:54:55;;;;;;;44.83;18.92;;;;;;;9.65;100.00;100143.19;4817990;29;20585;-79
2021/10/31 05:57:20;;;;;;;46.35;18.15;;;;;;;9.67;100.00;100142.97;4826823;29;20046;-79
2021/10/31 05:59:46;;;;;;;41.08;18.17;;;;;;;9.72;100.00;100145.88;4816349;29;20041;-80
2021/10/31 06:02:11;;;;;;;43.88;19.05;;;;;;;9.78;100.00;100145.84;4809878;29;20126;-79
2021/10/31 06:04:39;;;;;;;45.63;18.35;;;;;;;9.82;100.00;100157.00;4808305;29;20034;-79
2021/10/31 06:07:06;;;;;;;48.35;18.23;;;;;;;9.77;100.00;100143.38;4836099;29;20041;-80
2021/10/31 06:09:32;;;;;;;42.60;18.00;;;;;;;9.84;100.00;100161.13;4815214;29;20159;-79
2021/10/31 06:11:58;;;;;;;39.60;18.65;;;;;;;9.85;100.00;100161.97;4810310;29;20121;-81
2021/10/31 06:14:25;;;;;;;43.85;18.10;;;;;;;9.78;100.00;100145.84;4829203;29;20030;-81
2021/10/31 06:16:50;;;;;;;48.72;18.67;;;;;;;9.87;100.00;100162.59;4832157;29;20031;-79
2021/10/31 06:19:15;;;;;;;48.22;19.08;;;;;;;9.91;100.00;100165.69;4807967;29;20049;-80
2021/10/31 06:21:41;;;;;;;50.47;19.73;;;;;;;9.94;100.00;100170.63;4833198;29;20413;-80
2021/10/31 06:24:06;;;;;;;58.63;20.33;;;;;;;9.95;100.00;100172.28;4817303;29;20034;-80
2021/10/31 06:26:32;;;;;;;45.58;20.70;;;;;;;10.00;100.00;100177.81;4836144;29;20099;-80
2021/10/31 06:28:57;;;;;;;50.35;20.70;;;;;;;10.03;100.00;100180.94;4836454;29;20195;-79
2021/10/31 06:31:23;;;;;;;44.80;20.20;;;;;;;10.07;100.00;100176.78;4809298;29;20365;-80
2021/10/31 06:33:48;;;;;;;53.42;21.20;;;;;;;10.10;100.00;100175.56;4812087;29;20199;-80
2021/10/31 06:36:13;;;;;;;53.30;20.88;;;;;;;10.12;100.00;100179.66;4818609;29;20025;-80
2021/10/31 06:38:39;;;;;;;48.40;21.35;;;;;;;10.09;100.00;100179.25;4890980;24;20054;-79
2021/10/31 06:41:07;;;;;;;47.45;20.95;;;;;;;10.15;100.00;100189.16;4826780;29;20034;-79
2021/10/31 06:43:34;;;;;;;45.90;19.00;;;;;;;10.11;100.00;100175.31;4820252;29;20046;-79
2021/10/31 06:46:00;;;;;;;55.05;20.25;;;;;;;10.20;100.00;100181.31;4814308;29;20035;-80
2021/10/31 06:48:26;;;;;;;48.20;19.73;;;;;;;10.21;100.00;100193.72;4828555;29;20054;-80
2021/10/31 06:50:53;;;;;;;52.42;19.88;;;;;;;10.24;100.00;100198.66;4809195;29;20034;-80
2021/10/31 06:53:19;;;;;;;45.83;17.50;;;;;;;10.16;100.00;100184.63;4822487;29;20369;-80
2021/10/31 06:55:45;;;;;;;44.58;17.63;;;;;;;10.23;100.00;100199.72;4827445;29;20519;-80
2021/10/31 06:58:10;;;;;;;43.15;16.85;;;;;;;10.24;100.00;100205.91;4813422;29;20038;-79
2021/10/31 07:00:35;;;;;;;44.53;16.63;;;;;;;10.30;100.00;100219.38;4816669;29;20031;-80
2021/10/31 07:03:01;;;;;;;44.60;16.52;;;;;;;10.33;100.00;100218.94;4824608;29;20155;-80
2021/10/31 07:05:26;;;;;;;36.58;16.25;;;;;;;10.33;100.00;100229.69;4823480;29;20034;-79
2021/10/31 07:07:52;;;;;;;37.72;15.60;;;;;;;10.37;100.00;100237.34;4822983;29;20038;-80
2021/10/31 07:10:17;;;;;;;43.10;14.40;;;;;;;10.38;100.00;100249.75;4814308;29;20538;-80
2021/10/31 07:12:43;;;;;;;38.78;14.38;;;;;;;10.28;100.00;100234.06;4826081;29;20045;-78
2021/10/31 07:15:09;;;;;;;40.58;13.52;;;;;;;10.39;100.00;100240.63;4821641;29;20057;-79
2021/10/31 07:17:34;;;;;;;47.70;12.82;;;;;;;10.46;100.00;100252.19;4809114;29;20047;-79
2021/10/31 07:20:00;;;;;;;35.30;11.93;;;;;;;10.47;100.00;100259.25;4818651;29;20019;-81
2021/10/31 07:22:25;;;;;;;39.75;10.57;;;;;;;10.48;100.00;100258.19;4813314;29;20038;-81
2021/10/31 07:24:51;;;;;;;41.70;10.52;;;;;;;10.51;100.00;100263.97;4819254;29;20033;-81
2021/10/31 07:27:16;;;;;;;28.45;10.20;;;;;;;10.48;100.00;100258.19;4819680;29;20098;-81
2021/10/31 07:29:42;;;;;;;31.60;9.65;;;;;;;10.39;100.00;100246.00;4815481;29;20102;-80
2021/10/31 07:32:08;;;;;;;31.58;9.13;;;;;;;10.45;100.00;100270.19;4814721;29;20030;-80
2021/10/31 07:34:33;;;;;;;39.15;9.63;;;;;;;10.44;100.00;100267.72;4828648;29;20122;-80
2021/10/31 07:36:59;;;;;;;40.55;8.80;;;;;;;10.40;100.00;100277.25;4836513;29;20081;-79
2021/10/31 07:39:24;;;;;;;32.25;8.48;;;;;;;10.37;100.00;100266.94;4823392;29;20038;-79
2021/10/31 07:41:50;;;;;;;30.23;8.35;;;;;;;10.37;100.00;100272.31;4843720;29;20034;-80
2021/10/31 07:44:17;;;;;;;34.22;7.97;;;;;;;10.35;100.00;100278.69;4828974;29;20038;-79
2021/10/31 07:46:42;;;;;;;30.88;7.38;;;;;;;10.37;100.00;100277.69;4830477;29;20030;-80
2021/10/31 07:49:09;;;;;;;35.08;7.40;;;;;;;10.39;100.00;100289.88;4824745;29;20103;-79
2021/10/31 07:51:35;;;;;;;32.80;6.72;;;;;;;10.41;100.00;100289.66;4826975;29;20034;-80
2021/10/31 07:54:01;;;;;;;35.80;6.75;;;;;;;10.31;100.00;100285.53;4836130;29;20062;-80
2021/10/31 07:56:29;;;;;;;32.70;6.90;;;;;;;10.43;100.00;100304.56;4825676;29;20031;-80
2021/10/31 07:58:55;;;;;;;28.75;6.30;;;;;;;10.46;100.00;100306.00;4838890;29;20102;-80
2021/10/31 08:01:24;;;;;;;27.95;5.60;;;;;;;10.49;100.00;100313.63;4820215;29;20085;-79
2021/10/31 08:03:51;;;;;;;31.55;5.28;;;;;;;10.50;100.00;100304.56;4818343;29;20039;-80
2021/10/31 08:06:17;;;;;;;27.90;5.35;;;;;;;10.55;100.00;100318.19;4831175;29;20030;-81
2021/10/31 08:08:43;;;;;;;29.70;5.35;;;;;;;10.58;100.00;100318.59;4850923;29;20023;-80
2021/10/31 08:11:08;;;;;;;26.90;5.10;;;;;;;10.62;100.00;100324.38;4836779;29;20025;-80
2021/10/31 08:13:33;;;;;;;30.88;5.25;;;;;;;10.56;100.00;100312.59;4845522;29;20072;-80
2021/10/31 08:15:59;;;;;;;30.58;5.50;;;;;;;10.72;100.00;100323.94;4830934;29;20034;-80
2021/10/31 08:18:25;;;;;;;33.03;5.25;;;;;;;10.77;100.00;100332.22;4827006;29;20052;-80
2021/10/31 08:20:50;;;;;;;30.20;5.57;;;;;;;10.79;100.00;100332.81;4826677;29;20048;-81
2021/10/31 08:23:17;;;;;;;26.70;5.30;;;;;;;10.81;100.00;100323.47;4845350;29;20023;-80
2021/10/31 08:25:44;;;;;;;24.60;4.60;;;;;;;10.85;100.00;100339.22;4861914;29;20115;-80
2021/10/31 08:28:14;;;;;;;25.38;5.70;;;;;;;10.87;100.00;100337.16;4845191;29;20027;-80
2021/10/31 08:30:44;;;;;;;23.13;5.30;;;;;;;10.89;100.00;100333.19;4828973;29;20033;-80
2021/10/31 08:33:22;;;;;;;30.65;5.03;;;;;;;10.92;100.00;100334.63;4828086;29;20027;-80
2021/10/31 08:35:48;;;;;;;31.50;4.45;;;;;;;10.81;100.00;100301.13;4827338;29;20196;-80
2021/10/31 08:38:14;;;;;;;24.98;4.10;;;;;;;10.92;100.00;100327.38;4843013;29;20058;-79
2021/10/31 08:40:41;;;;;;;22.27;4.38;;;;;;;11.01;100.00;100327.97;4837443;29;20095;-79
2021/10/31 08:43:08;;;;;;;20.75;3.70;;;;;;;11.04;100.00;100328.38;4816563;29;20068;-80
2021/10/31 08:45:35;;;;;;;25.90;5.05;;;;;;;11.00;100.00;100327.16;4816249;29;20031;-80
2021/10/31 08:48:00;;;;;;;27.63;4.55;;;;;;;11.09;100.00;100346.56;4827263;29;20041;-80
2021/10/31 08:50:28;;;;;;;29.05;4.32;;;;;;;11.10;100.00;100353.63;4834696;29;20094;-80
2021/10/31 08:52:53;;;;;;;26.48;5.15;;;;;;;11.11;100.00;100336.41;4816940;29;20031;-80
2021/10/31 08:55:19;;;;;;;28.60;3.97;;;;;;;11.14;100.00;100341.38;4816429;29;20039;-80
2021/10/31 08:57:45;;;;;;;20.98;3.70;;;;;;;11.19;100.00;100329.94;4812164;29;20101;-79
2021/10/31 09:00:12;;;;;;;27.73;4.20;;;;;;;11.04;100.00;100306.81;4824607;29;20125;-79
2021/10/31 09:02:38;;;;;;;22.27;4.65;;;;;;;11.20;100.00;100342.41;4820854;29;20450;-80
2021/10/31 09:05:07;;;;;;;22.77;3.80;;;;;;;11.22;100.00;100334.91;4810095;29;20038;-80
2021/10/31 09:07:33;;;;;;;30.42;4.00;;;;;;;11.28;100.00;100344.81;4824111;29;20132;-80
2021/10/31 09:09:59;;;;;;;22.25;3.83;;;;;;;11.28;100.00;100356.41;4821900;29;20098;-80
2021/10/31 09:12:25;;;;;;;30.00;3.72;;;;;;;11.31;100.00;100362.44;4827685;29;20038;-79
2021/10/31 09:14:51;;;;;;;26.55;3.63;;;;;;;11.29;100.00;100355.41;4827429;29;20041;-80
2021/10/31 09:17:17;;;;;;;20.50;3.55;;;;;;;11.26;100.00;100357.69;4830019;29;20030;-80
2021/10/31 09:19:42;;;;;;;24.58;3.53;;;;;;;11.37;100.00;100362.41;4827684;29;20034;-79
2021/10/31 09:22:07;;;;;;;23.23;3.95;;;;;;;11.37;100.00;100366.97;4831724;29;20038;-78
2021/10/31 09:24:33;;;;;;;22.45;3.47;;;;;;;11.40;100.00;100359.28;4823884;29;20027;-79
2021/10/31 09:26:58;;;;;;;25.83;3.75;;;;;;;11.41;100.00;100366.31;4829993;29;20037;-80
2021/10/31 09:29:25;;;;;;;17.27;3.72;;;;;;;11.45;100.00;100362.13;4811576;29;20031;-79
2021/10/31 09:31:50;;;;;;;20.75;3.20;;;;;;;11.47;100.00;100362.75;4816176;29;20099;-79
2021/10/31 09:34:15;;;;;;;22.08;3.35;;;;;;;11.50;100.00;100365.03;4815294;29;20043;-79
2021/10/31 09:36:41;;;;;;;18.30;3.40;;;;;;;11.49;100.00;100367.94;4838385;29;20046;-79
2021/10/31 09:39:08;;;;;;;19.02;3.22;;;;;;;11.49;100.00;100360.69;4839392;29;20129;-79
2021/10/31 09:41:35;;;;;;;19.75;3.30;;;;;;;11.10;100.00;100318.63;4843514;29;20121;-79
2021/10/31 09:44:21;;;;;;;17.15;3.22;;;;;;;11.28;100.00;100332.19;4826947;29;20038;-79
2021/10/31 09:46:47;;;;;;;19.15;2.83;;;;;;;11.27;100.00;100343.19;4843533;29;20095;-80
2021/10/31 09:49:13;;;;;;;19.48;3.33;;;;;;;11.42;100.00;100383.28;4827764;29;20039;-79
2021/10/31 09:51:41;;;;;;;18.38;3.47;;;;;;;11.46;100.00;100395.31;4811408;29;20037;-79
2021/10/31 09:54:08;;;;;;;20.08;3.38;;;;;;;11.49;100.00;100376.84;4828702;29;20026;-79
2021/10/31 09:56:37;;;;;;;21.35;3.15;;;;;;;11.65;100.00;100390.84;4836811;29;20034;-79
2021/10/31 09:59:09;;;;;;;16.92;3.40;;;;;;;11.71;100.00;100388.09;4836444;29;20042;-80
2021/10/31 10:01:49;;;;;;;22.70;3.10;;;;;;;11.74;100.00;100384.97;4828620;29;20018;-80
2021/10/31 10:04:25;;;;;;;18.33;3.35;;;;;;;11.75;100.00;100383.97;4824709;29;20030;-80
2021/10/31 10:06:53;;;;;;;22.35;2.85;;;;;;;11.80;100.00;100387.88;4826653;29;20035;-79
2021/10/31 10:09:20;;;;;;;23.25;3.15;;;;;;;11.72;100.00;100370.91;4811955;29;20058;-80
2021/10/31 10:11:46;;;;;;;20.52;3.20;;;;;;;11.85;100.00;100382.66;4829676;29;20037;-79
2021/10/31 10:14:24;;;;;;;17.77;3.15;;;;;;;11.86;100.00;100387.03;4828856;29;20038;-79
2021/10/31 10:17:02;;;;;;;18.90;2.97;;;;;;;11.66;100.00;100346.69;4833951;29;20034;-81
2021/10/31 10:19:44;;;;;;;22.13;2.83;;;;;;;11.96;100.00;100390.06;4812665;29;20397;-79
2021/10/31 10:22:11;;;;;;;21.88;3.70;;;;;;;11.98;100.00;100396.03;4824943;29;20118;-80
2021/10/31 10:24:46;;;;;;;20.98;3.47;;;;;;;11.89;100.00;100383.91;4827249;29;20120;-80
2021/10/31 10:27:12;;;;;;;21.20;3.17;;;;;;;11.98;100.00;100396.88;4814312;29;20343;-80
2021/10/31 10:29:40;;;;;;;19.02;3.13;;;;;;;11.98;100.00;100396.03;4814579;29;20106;-81
2021/10/31 10:32:08;;;;;;;20.27;3.13;;;;;;;11.99;100.00;100401.25;4815924;29;20035;-80
2021/10/31 10:34:42;;;;;;;20.00;2.97;;;;;;;12.04;100.00;100400.56;4816900;29;20071;-81
2021/10/31 10:37:15;;;;;;;19.75;3.60;;;;;;;11.97;100.00;100392.53;4818260;29;20092;-79
2021/10/31 10:39:43;;;;;;;19.83;3.13;;;;;;;11.91;100.00;100387.19;4817895;29;20049;-80
2021/10/31 10:42:09;;;;;;;21.90;3.15;;;;;;;11.97;100.00;100391.72;4833808;29;20026;-79
2021/10/31 10:44:39;;;;;;;19.98;3.55;;;;;;;11.97;100.00;100384.44;4831726;29;20050;-80
2021/10/31 10:47:11;;;;;;;20.77;4.22;;;;;;;12.04;100.00;100397.88;4814294;29;20031;-80
2021/10/31 10:49:39;;;;;;;20.02;3.03;;;;;;;12.03;100.00;100398.94;4824665;29;20030;-79
2021/10/31 10:52:26;;;;;;;25.58;3.83;;;;;;;12.04;100.00;100407.84;4818979;29;20067;-80
2021/10/31 10:54:53;;;;;;;20.50;3.13;;;;;;;11.98;100.00;100409.53;4824046;29;20038;-81
2021/10/31 10:57:20;;;;;;;19.52;3.20;;;;;;;11.99;100.00;100400.41;4822280;29;20046;-81
2021/10/31 11:00:20;;;;;;;22.85;3.97;;;;;;;12.06;100.00;100408.47;4815719;29;20474;-80
2021/10/31 11:02:48;;;;;;;23.88;3.35;;;;;;;11.95;100.00;100401.88;4812896;29;20046;-81
2021/10/31 11:05:19;;;;;;;20.98;3.80;;;;;;;12.07;100.00;100410.09;4826861;29;20027;-81
2021/10/31 11:07:47;;;;;;;17.25;3.20;;;;;;;12.05;100.00;100388.72;4823742;29;20027;-83
2021/10/31 11:10:26;;;;;;;19.60;3.92;;;;;;;12.10;100.00;100394.31;4837043;29;20034;-79
2021/10/31 11:12:54;;;;;;;24.92;3.90;;;;;;;12.17;100.00;100408.56;4837499;29;20035;-80